sensor_id;sensor_type;location;lat;lon;timestamp;P1;durP1;ratioP1;P2;durP2;ratioP2
34725;SDS011;20951;50.818;4.344;2023-03-23T00:01:56;12.07;;;6.05;;
34725;SDS011;20951;50.818;4.344;2023-03-23T00:04:22;10.65;;;5.95;;
34725;SDS011;20951;50.818;4.344;2023-03-23T00:06:51;10.07;;;5.50;;
34725;SDS011;20951;50.818;4.344;2023-03-23T00:09:17;7.00;;;5.20;;
34725;SDS011;20951;50.818;4.344;2023-03-23T00:11:48;9.77;;;5.40;;
34725;SDS011;20951;50.818;4.344;2023-03-23T00:14:15;6.57;;;4.93;;
34725;SDS011;20951;50.818;4.344;2023-03-23T00:16:47;7.95;;;5.30;;
34725;SDS011;20951;50.818;4.344;2023-03-23T00:19:15;8.05;;;5.20;;
34725;SDS011;20951;50.818;4.344;2023-03-23T00:21:42;9.82;;;5.40;;
34725;SDS011;20951;50.818;4.344;2023-03-23T00:26:36;9.13;;;5.05;;
34725;SDS011;20951;50.818;4.344;2023-03-23T00:29:06;8.50;;;5.07;;
34725;SDS011;20951;50.818;4.344;2023-03-23T00:31:38;8.30;;;5.40;;
34725;SDS011;20951;50.818;4.344;2023-03-23T00:34:04;9.20;;;5.25;;
34725;SDS011;20951;50.818;4.344;2023-03-23T00:36:32;7.10;;;5.00;;
34725;SDS011;20951;50.818;4.344;2023-03-23T00:39:00;7.32;;;5.03;;
34725;SDS011;20951;50.818;4.344;2023-03-23T00:41:28;7.32;;;4.85;;
34725;SDS011;20951;50.818;4.344;2023-03-23T00:43:55;6.80;;;4.90;;
34725;SDS011;20951;50.818;4.344;2023-03-23T00:46:22;8.40;;;4.75;;
34725;SDS011;20951;50.818;4.344;2023-03-23T00:48:48;7.72;;;4.88;;
34725;SDS011;20951;50.818;4.344;2023-03-23T00:51:15;7.65;;;5.03;;
34725;SDS011;20951;50.818;4.344;2023-03-23T00:53:42;7.47;;;5.10;;
34725;SDS011;20951;50.818;4.344;2023-03-23T00:56:09;7.90;;;5.07;;
34725;SDS011;20951;50.818;4.344;2023-03-23T00:58:35;8.10;;;5.00;;
34725;SDS011;20951;50.818;4.344;2023-03-23T01:01:01;8.73;;;5.30;;
34725;SDS011;20951;50.818;4.344;2023-03-23T01:03:27;9.80;;;5.68;;
34725;SDS011;20951;50.818;4.344;2023-03-23T01:05:54;7.55;;;5.10;;
34725;SDS011;20951;50.818;4.344;2023-03-23T01:08:21;8.57;;;5.50;;
34725;SDS011;20951;50.818;4.344;2023-03-23T01:10:48;8.45;;;5.28;;
34725;SDS011;20951;50.818;4.344;2023-03-23T01:13:15;9.02;;;4.97;;
34725;SDS011;20951;50.818;4.344;2023-03-23T01:15:41;8.48;;;5.15;;
34725;SDS011;20951;50.818;4.344;2023-03-23T01:18:08;8.68;;;5.50;;
34725;SDS011;20951;50.818;4.344;2023-03-23T01:20:35;6.65;;;4.80;;
34725;SDS011;20951;50.818;4.344;2023-03-23T01:23:01;7.13;;;4.80;;
34725;SDS011;20951;50.818;4.344;2023-03-23T01:25:28;9.95;;;5.30;;
34725;SDS011;20951;50.818;4.344;2023-03-23T01:27:56;9.02;;;4.90;;
34725;SDS011;20951;50.818;4.344;2023-03-23T01:30:23;6.70;;;5.30;;
34725;SDS011;20951;50.818;4.344;2023-03-23T01:32:49;8.30;;;4.93;;
34725;SDS011;20951;50.818;4.344;2023-03-23T01:35:15;7.53;;;4.55;;
34725;SDS011;20951;50.818;4.344;2023-03-23T01:37:42;7.78;;;4.97;;
34725;SDS011;20951;50.818;4.344;2023-03-23T01:40:08;9.73;;;5.20;;
34725;SDS011;20951;50.818;4.344;2023-03-23T01:42:36;7.95;;;4.80;;
34725;SDS011;20951;50.818;4.344;2023-03-23T01:48:07;10.32;;;4.57;;
34725;SDS011;20951;50.818;4.344;2023-03-23T01:53:20;6.97;;;4.35;;
34725;SDS011;20951;50.818;4.344;2023-03-23T01:55:49;6.97;;;4.50;;
34725;SDS011;20951;50.818;4.344;2023-03-23T01:58:23;7.28;;;4.40;;
34725;SDS011;20951;50.818;4.344;2023-03-23T02:00:55;9.73;;;4.55;;
34725;SDS011;20951;50.818;4.344;2023-03-23T02:03:25;7.47;;;4.87;;
34725;SDS011;20951;50.818;4.344;2023-03-23T02:05:53;7.32;;;4.50;;
34725;SDS011;20951;50.818;4.344;2023-03-23T02:08:23;6.45;;;4.00;;
34725;SDS011;20951;50.818;4.344;2023-03-23T02:10:53;6.85;;;3.92;;
34725;SDS011;20951;50.818;4.344;2023-03-23T02:13:19;8.55;;;3.88;;
34725;SDS011;20951;50.818;4.344;2023-03-23T02:18:40;6.32;;;3.92;;
34725;SDS011;20951;50.818;4.344;2023-03-23T02:29:46;5.60;;;2.55;;
34725;SDS011;20951;50.818;4.344;2023-03-23T02:32:21;8.00;;;2.53;;
34725;SDS011;20951;50.818;4.344;2023-03-23T02:34:53;4.70;;;2.10;;
34725;SDS011;20951;50.818;4.344;2023-03-23T02:37:26;7.00;;;2.15;;
34725;SDS011;20951;50.818;4.344;2023-03-23T02:39:57;5.18;;;2.10;;
34725;SDS011;20951;50.818;4.344;2023-03-23T02:42:34;6.07;;;2.00;;
34725;SDS011;20951;50.818;4.344;2023-03-23T02:45:05;5.32;;;1.95;;
34725;SDS011;20951;50.818;4.344;2023-03-23T02:47:34;4.40;;;1.83;;
34725;SDS011;20951;50.818;4.344;2023-03-23T02:50:03;5.10;;;1.63;;
34725;SDS011;20951;50.818;4.344;2023-03-23T02:52:32;5.32;;;1.67;;
34725;SDS011;20951;50.818;4.344;2023-03-23T02:55:01;4.47;;;1.80;;
34725;SDS011;20951;50.818;4.344;2023-03-23T02:57:28;5.75;;;2.15;;
34725;SDS011;20951;50.818;4.344;2023-03-23T02:59:55;4.55;;;2.00;;
34725;SDS011;20951;50.818;4.344;2023-03-23T03:02:55;7.97;;;2.20;;
34725;SDS011;20951;50.818;4.344;2023-03-23T03:11:17;4.82;;;1.88;;
34725;SDS011;20951;50.818;4.344;2023-03-23T03:13:59;5.90;;;1.80;;
34725;SDS011;20951;50.818;4.344;2023-03-23T03:21:44;6.97;;;1.90;;
34725;SDS011;20951;50.818;4.344;2023-03-23T03:24:14;4.65;;;1.63;;
34725;SDS011;20951;50.818;4.344;2023-03-23T03:26:44;4.95;;;1.75;;
34725;SDS011;20951;50.818;4.344;2023-03-23T03:29:22;6.10;;;1.40;;
34725;SDS011;20951;50.818;4.344;2023-03-23T03:31:51;5.05;;;1.60;;
34725;SDS011;20951;50.818;4.344;2023-03-23T03:34:20;5.88;;;1.50;;
34725;SDS011;20951;50.818;4.344;2023-03-23T03:36:48;4.38;;;1.25;;
34725;SDS011;20951;50.818;4.344;2023-03-23T03:39:17;8.85;;;1.90;;
34725;SDS011;20951;50.818;4.344;2023-03-23T03:41:45;6.10;;;1.80;;
34725;SDS011;20951;50.818;4.344;2023-03-23T03:44:11;5.90;;;1.80;;
34725;SDS011;20951;50.818;4.344;2023-03-23T03:46:37;7.82;;;2.03;;
34725;SDS011;20951;50.818;4.344;2023-03-23T03:49:04;8.77;;;1.90;;
34725;SDS011;20951;50.818;4.344;2023-03-23T03:51:33;6.50;;;1.80;;
34725;SDS011;20951;50.818;4.344;2023-03-23T03:54:00;5.93;;;1.88;;
34725;SDS011;20951;50.818;4.344;2023-03-23T03:56:26;7.13;;;1.90;;
34725;SDS011;20951;50.818;4.344;2023-03-23T03:58:53;8.52;;;2.05;;
34725;SDS011;20951;50.818;4.344;2023-03-23T04:01:20;7.65;;;1.92;;
34725;SDS011;20951;50.818;4.344;2023-03-23T04:03:48;11.27;;;2.45;;
34725;SDS011;20951;50.818;4.344;2023-03-23T04:06:14;8.88;;;2.30;;
34725;SDS011;20951;50.818;4.344;2023-03-23T04:08:40;9.25;;;2.17;;
34725;SDS011;20951;50.818;4.344;2023-03-23T04:11:08;13.13;;;2.30;;
34725;SDS011;20951;50.818;4.344;2023-03-23T04:13:35;11.90;;;2.22;;
34725;SDS011;20951;50.818;4.344;2023-03-23T04:16:01;11.30;;;2.17;;
34725;SDS011;20951;50.818;4.344;2023-03-23T04:18:28;8.48;;;1.92;;
34725;SDS011;20951;50.818;4.344;2023-03-23T04:20:57;11.82;;;2.30;;
34725;SDS011;20951;50.818;4.344;2023-03-23T04:23:24;6.85;;;1.67;;
34725;SDS011;20951;50.818;4.344;2023-03-23T04:25:51;8.95;;;2.05;;
34725;SDS011;20951;50.818;4.344;2023-03-23T04:28:22;7.88;;;1.95;;
34725;SDS011;20951;50.818;4.344;2023-03-23T04:30:50;6.78;;;1.80;;
34725;SDS011;20951;50.818;4.344;2023-03-23T04:33:20;12.98;;;2.15;;
34725;SDS011;20951;50.818;4.344;2023-03-23T04:35:50;9.45;;;1.92;;
34725;SDS011;20951;50.818;4.344;2023-03-23T04:38:18;8.52;;;2.08;;
34725;SDS011;20951;50.818;4.344;2023-03-23T04:40:46;8.35;;;2.13;;
34725;SDS011;20951;50.818;4.344;2023-03-23T04:43:13;7.40;;;1.90;;
34725;SDS011;20951;50.818;4.344;2023-03-23T04:45:40;11.98;;;2.00;;
34725;SDS011;20951;50.818;4.344;2023-03-23T04:48:11;6.82;;;1.85;;
34725;SDS011;20951;50.818;4.344;2023-03-23T04:50:37;6.88;;;1.85;;
34725;SDS011;20951;50.818;4.344;2023-03-23T04:53:03;7.55;;;1.70;;
34725;SDS011;20951;50.818;4.344;2023-03-23T04:55:34;7.38;;;1.83;;
34725;SDS011;20951;50.818;4.344;2023-03-23T04:58:02;7.53;;;1.98;;
34725;SDS011;20951;50.818;4.344;2023-03-23T05:00:28;7.07;;;1.50;;
34725;SDS011;20951;50.818;4.344;2023-03-23T05:02:55;10.10;;;1.92;;
34725;SDS011;20951;50.818;4.344;2023-03-23T05:05:21;6.85;;;1.80;;
34725;SDS011;20951;50.818;4.344;2023-03-23T05:07:48;8.30;;;1.63;;
34725;SDS011;20951;50.818;4.344;2023-03-23T05:10:14;8.98;;;1.85;;
34725;SDS011;20951;50.818;4.344;2023-03-23T05:12:41;5.70;;;1.58;;
34725;SDS011;20951;50.818;4.344;2023-03-23T05:15:08;5.18;;;1.45;;
34725;SDS011;20951;50.818;4.344;2023-03-23T05:17:36;7.22;;;2.40;;
34725;SDS011;20951;50.818;4.344;2023-03-23T05:20:03;9.43;;;2.40;;
34725;SDS011;20951;50.818;4.344;2023-03-23T05:22:33;8.85;;;2.65;;
34725;SDS011;20951;50.818;4.344;2023-03-23T05:24:59;7.20;;;2.30;;
34725;SDS011;20951;50.818;4.344;2023-03-23T05:27:29;8.60;;;2.45;;
34725;SDS011;20951;50.818;4.344;2023-03-23T05:29:56;8.13;;;2.20;;
34725;SDS011;20951;50.818;4.344;2023-03-23T05:32:24;5.68;;;2.00;;
34725;SDS011;20951;50.818;4.344;2023-03-23T05:34:57;6.85;;;2.53;;
34725;SDS011;20951;50.818;4.344;2023-03-23T05:37:25;7.72;;;2.05;;
34725;SDS011;20951;50.818;4.344;2023-03-23T05:39:53;9.13;;;1.98;;
34725;SDS011;20951;50.818;4.344;2023-03-23T05:42:23;6.68;;;1.98;;
34725;SDS011;20951;50.818;4.344;2023-03-23T05:44:49;7.03;;;1.95;;
34725;SDS011;20951;50.818;4.344;2023-03-23T05:47:15;7.25;;;1.88;;
34725;SDS011;20951;50.818;4.344;2023-03-23T05:49:42;8.88;;;2.53;;
34725;SDS011;20951;50.818;4.344;2023-03-23T05:52:07;10.10;;;2.33;;
34725;SDS011;20951;50.818;4.344;2023-03-23T05:54:34;6.43;;;1.92;;
34725;SDS011;20951;50.818;4.344;2023-03-23T05:57:00;11.32;;;2.40;;
34725;SDS011;20951;50.818;4.344;2023-03-23T05:59:27;10.55;;;2.20;;
34725;SDS011;20951;50.818;4.344;2023-03-23T06:01:52;8.20;;;2.20;;
34725;SDS011;20951;50.818;4.344;2023-03-23T06:04:40;8.07;;;2.30;;
34725;SDS011;20951;50.818;4.344;2023-03-23T06:07:10;8.15;;;2.30;;
34725;SDS011;20951;50.818;4.344;2023-03-23T06:09:44;10.15;;;2.30;;
34725;SDS011;20951;50.818;4.344;2023-03-23T06:12:16;7.60;;;2.00;;
34725;SDS011;20951;50.818;4.344;2023-03-23T06:14:47;10.60;;;2.45;;
34725;SDS011;20951;50.818;4.344;2023-03-23T06:17:15;7.18;;;2.53;;
34725;SDS011;20951;50.818;4.344;2023-03-23T06:19:45;8.57;;;2.40;;
34725;SDS011;20951;50.818;4.344;2023-03-23T06:22:14;7.07;;;2.05;;
34725;SDS011;20951;50.818;4.344;2023-03-23T06:24:44;8.77;;;2.35;;
34725;SDS011;20951;50.818;4.344;2023-03-23T06:27:22;10.52;;;2.42;;
34725;SDS011;20951;50.818;4.344;2023-03-23T06:29:49;7.93;;;2.38;;
34725;SDS011;20951;50.818;4.344;2023-03-23T06:32:16;9.65;;;2.80;;
34725;SDS011;20951;50.818;4.344;2023-03-23T06:34:45;10.98;;;2.22;;
34725;SDS011;20951;50.818;4.344;2023-03-23T06:37:13;9.90;;;2.78;;
34725;SDS011;20951;50.818;4.344;2023-03-23T06:39:41;9.88;;;2.45;;
34725;SDS011;20951;50.818;4.344;2023-03-23T06:42:09;11.90;;;2.80;;
34725;SDS011;20951;50.818;4.344;2023-03-23T06:44:37;9.75;;;2.65;;
34725;SDS011;20951;50.818;4.344;2023-03-23T06:47:05;6.88;;;2.28;;
34725;SDS011;20951;50.818;4.344;2023-03-23T06:49:34;8.00;;;2.40;;
34725;SDS011;20951;50.818;4.344;2023-03-23T06:52:02;8.65;;;2.67;;
34725;SDS011;20951;50.818;4.344;2023-03-23T06:54:31;11.35;;;2.60;;
34725;SDS011;20951;50.818;4.344;2023-03-23T06:56:57;9.32;;;2.90;;
34725;SDS011;20951;50.818;4.344;2023-03-23T06:59:23;6.85;;;2.60;;
34725;SDS011;20951;50.818;4.344;2023-03-23T07:01:49;7.63;;;2.65;;
34725;SDS011;20951;50.818;4.344;2023-03-23T07:04:17;8.70;;;2.90;;
34725;SDS011;20951;50.818;4.344;2023-03-23T07:06:46;10.23;;;2.42;;
34725;SDS011;20951;50.818;4.344;2023-03-23T07:09:14;10.48;;;3.40;;
34725;SDS011;20951;50.818;4.344;2023-03-23T07:11:42;6.35;;;2.60;;
34725;SDS011;20951;50.818;4.344;2023-03-23T07:14:12;9.35;;;3.08;;
34725;SDS011;20951;50.818;4.344;2023-03-23T07:16:41;6.05;;;1.63;;
34725;SDS011;20951;50.818;4.344;2023-03-23T07:19:08;4.72;;;1.10;;
34725;SDS011;20951;50.818;4.344;2023-03-23T07:21:36;7.35;;;1.45;;
34725;SDS011;20951;50.818;4.344;2023-03-23T07:24:04;4.57;;;1.27;;
34725;SDS011;20951;50.818;4.344;2023-03-23T07:26:32;22.15;;;12.10;;
34725;SDS011;20951;50.818;4.344;2023-03-23T07:29:00;7.28;;;1.75;;
34725;SDS011;20951;50.818;4.344;2023-03-23T07:31:28;9.57;;;1.90;;
34725;SDS011;20951;50.818;4.344;2023-03-23T07:33:56;9.73;;;2.35;;
34725;SDS011;20951;50.818;4.344;2023-03-23T07:36:25;10.90;;;2.70;;
34725;SDS011;20951;50.818;4.344;2023-03-23T07:38:53;6.05;;;1.98;;
34725;SDS011;20951;50.818;4.344;2023-03-23T07:41:22;7.68;;;2.42;;
34725;SDS011;20951;50.818;4.344;2023-03-23T07:43:48;6.13;;;1.80;;
34725;SDS011;20951;50.818;4.344;2023-03-23T07:46:14;8.40;;;2.20;;
34725;SDS011;20951;50.818;4.344;2023-03-23T07:48:41;7.35;;;2.03;;
34725;SDS011;20951;50.818;4.344;2023-03-23T07:51:07;8.48;;;2.00;;
34725;SDS011;20951;50.818;4.344;2023-03-23T07:53:35;9.65;;;2.60;;
34725;SDS011;20951;50.818;4.344;2023-03-23T07:56:04;4.90;;;2.35;;
34725;SDS011;20951;50.818;4.344;2023-03-23T07:58:32;4.97;;;1.75;;
34725;SDS011;20951;50.818;4.344;2023-03-23T08:01:01;7.15;;;1.95;;
34725;SDS011;20951;50.818;4.344;2023-03-23T08:03:29;6.20;;;1.83;;
34725;SDS011;20951;50.818;4.344;2023-03-23T08:05:58;6.05;;;1.73;;
34725;SDS011;20951;50.818;4.344;2023-03-23T08:08:26;6.35;;;1.58;;
34725;SDS011;20951;50.818;4.344;2023-03-23T08:10:55;6.43;;;1.33;;
34725;SDS011;20951;50.818;4.344;2023-03-23T08:13:23;7.15;;;1.73;;
34725;SDS011;20951;50.818;4.344;2023-03-23T08:15:51;4.53;;;1.30;;
34725;SDS011;20951;50.818;4.344;2023-03-23T08:18:20;7.28;;;1.73;;
34725;SDS011;20951;50.818;4.344;2023-03-23T08:20:48;5.22;;;1.40;;
34725;SDS011;20951;50.818;4.344;2023-03-23T08:23:16;5.50;;;1.73;;
34725;SDS011;20951;50.818;4.344;2023-03-23T08:25:44;4.53;;;1.73;;
34725;SDS011;20951;50.818;4.344;2023-03-23T08:28:12;5.85;;;1.20;;
34725;SDS011;20951;50.818;4.344;2023-03-23T08:30:41;6.32;;;1.48;;
34725;SDS011;20951;50.818;4.344;2023-03-23T08:33:09;4.82;;;1.52;;
34725;SDS011;20951;50.818;4.344;2023-03-23T08:35:37;5.95;;;1.60;;
34725;SDS011;20951;50.818;4.344;2023-03-23T08:38:06;6.10;;;1.52;;
34725;SDS011;20951;50.818;4.344;2023-03-23T08:40:34;8.32;;;2.70;;
34725;SDS011;20951;50.818;4.344;2023-03-23T08:43:03;5.82;;;1.63;;
34725;SDS011;20951;50.818;4.344;2023-03-23T08:45:31;5.88;;;1.30;;
34725;SDS011;20951;50.818;4.344;2023-03-23T08:47:59;6.13;;;2.33;;
34725;SDS011;20951;50.818;4.344;2023-03-23T08:50:27;4.32;;;1.60;;
34725;SDS011;20951;50.818;4.344;2023-03-23T08:52:56;6.22;;;2.60;;
34725;SDS011;20951;50.818;4.344;2023-03-23T08:55:24;4.60;;;1.38;;
34725;SDS011;20951;50.818;4.344;2023-03-23T08:57:52;6.65;;;1.73;;
34725;SDS011;20951;50.818;4.344;2023-03-23T09:00:21;6.32;;;1.85;;
34725;SDS011;20951;50.818;4.344;2023-03-23T09:02:50;5.40;;;1.85;;
34725;SDS011;20951;50.818;4.344;2023-03-23T09:05:18;7.35;;;2.20;;
34725;SDS011;20951;50.818;4.344;2023-03-23T09:07:50;8.07;;;1.85;;
34725;SDS011;20951;50.818;4.344;2023-03-23T09:10:18;6.95;;;1.85;;
34725;SDS011;20951;50.818;4.344;2023-03-23T09:12:45;8.23;;;1.90;;
34725;SDS011;20951;50.818;4.344;2023-03-23T09:15:12;9.00;;;2.03;;
34725;SDS011;20951;50.818;4.344;2023-03-23T09:17:44;7.82;;;2.10;;
34725;SDS011;20951;50.818;4.344;2023-03-23T09:20:12;9.27;;;2.08;;
34725;SDS011;20951;50.818;4.344;2023-03-23T09:22:40;6.05;;;1.92;;
34725;SDS011;20951;50.818;4.344;2023-03-23T09:25:13;5.82;;;1.73;;
34725;SDS011;20951;50.818;4.344;2023-03-23T09:27:44;8.35;;;2.25;;
34725;SDS011;20951;50.818;4.344;2023-03-23T09:30:14;6.93;;;2.25;;
34725;SDS011;20951;50.818;4.344;2023-03-23T09:32:44;5.38;;;2.22;;
34725;SDS011;20951;50.818;4.344;2023-03-23T09:35:13;8.50;;;2.30;;
34725;SDS011;20951;50.818;4.344;2023-03-23T09:37:45;5.75;;;1.83;;
34725;SDS011;20951;50.818;4.344;2023-03-23T09:40:22;8.20;;;1.70;;
34725;SDS011;20951;50.818;4.344;2023-03-23T09:45:41;4.97;;;1.50;;
34725;SDS011;20951;50.818;4.344;2023-03-23T09:48:24;5.00;;;1.50;;
34725;SDS011;20951;50.818;4.344;2023-03-23T09:50:57;6.68;;;1.88;;
34725;SDS011;20951;50.818;4.344;2023-03-23T09:53:30;4.63;;;1.63;;
34725;SDS011;20951;50.818;4.344;2023-03-23T09:56:13;4.80;;;1.60;;
34725;SDS011;20951;50.818;4.344;2023-03-23T09:59:01;4.80;;;1.60;;
34725;SDS011;20951;50.818;4.344;2023-03-23T10:01:45;8.80;;;1.85;;
34725;SDS011;20951;50.818;4.344;2023-03-23T10:04:30;7.15;;;1.67;;
34725;SDS011;20951;50.818;4.344;2023-03-23T10:07:10;3.95;;;1.50;;
34725;SDS011;20951;50.818;4.344;2023-03-23T10:09:39;5.45;;;1.90;;
34725;SDS011;20951;50.818;4.344;2023-03-23T10:14:47;7.20;;;1.98;;
34725;SDS011;20951;50.818;4.344;2023-03-23T10:22:41;8.50;;;2.25;;
34725;SDS011;20951;50.818;4.344;2023-03-23T10:25:16;4.82;;;2.20;;
34725;SDS011;20951;50.818;4.344;2023-03-23T10:30:42;7.25;;;2.20;;
34725;SDS011;20951;50.818;4.344;2023-03-23T10:33:41;8.50;;;2.45;;
34725;SDS011;20951;50.818;4.344;2023-03-23T10:38:57;6.15;;;2.53;;
34725;SDS011;20951;50.818;4.344;2023-03-23T10:41:44;8.82;;;2.97;;
34725;SDS011;20951;50.818;4.344;2023-03-23T10:44:17;8.30;;;2.50;;
34725;SDS011;20951;50.818;4.344;2023-03-23T10:47:00;8.98;;;2.70;;
34725;SDS011;20951;50.818;4.344;2023-03-23T10:52:07;8.23;;;2.45;;
34725;SDS011;20951;50.818;4.344;2023-03-23T10:57:35;9.25;;;2.75;;
34725;SDS011;20951;50.818;4.344;2023-03-23T11:00:05;7.95;;;2.75;;
34725;SDS011;20951;50.818;4.344;2023-03-23T11:03:06;8.50;;;2.50;;
34725;SDS011;20951;50.818;4.344;2023-03-23T11:05:41;9.55;;;2.53;;
34725;SDS011;20951;50.818;4.344;2023-03-23T11:08:31;8.13;;;2.33;;
34725;SDS011;20951;50.818;4.344;2023-03-23T11:11:10;7.97;;;2.45;;
34725;SDS011;20951;50.818;4.344;2023-03-23T11:13:48;7.68;;;2.55;;
34725;SDS011;20951;50.818;4.344;2023-03-23T11:16:32;7.50;;;2.90;;
34725;SDS011;20951;50.818;4.344;2023-03-23T11:19:11;8.18;;;2.78;;
34725;SDS011;20951;50.818;4.344;2023-03-23T11:21:39;8.48;;;2.78;;
34725;SDS011;20951;50.818;4.344;2023-03-23T11:24:07;8.43;;;2.78;;
34725;SDS011;20951;50.818;4.344;2023-03-23T11:26:34;7.88;;;2.50;;
34725;SDS011;20951;50.818;4.344;2023-03-23T11:29:15;8.57;;;2.60;;
34725;SDS011;20951;50.818;4.344;2023-03-23T11:34:26;7.47;;;2.28;;
34725;SDS011;20951;50.818;4.344;2023-03-23T11:37:00;8.82;;;2.30;;
34725;SDS011;20951;50.818;4.344;2023-03-23T11:39:33;7.93;;;2.17;;
34725;SDS011;20951;50.818;4.344;2023-03-23T11:42:12;9.18;;;2.40;;
34725;SDS011;20951;50.818;4.344;2023-03-23T11:44:54;8.80;;;2.20;;
34725;SDS011;20951;50.818;4.344;2023-03-23T11:51:04;8.23;;;2.20;;
34725;SDS011;20951;50.818;4.344;2023-03-23T11:56:27;6.35;;;2.10;;
34725;SDS011;20951;50.818;4.344;2023-03-23T11:59:01;9.80;;;2.70;;
34725;SDS011;20951;50.818;4.344;2023-03-23T12:01:37;8.75;;;2.22;;
34725;SDS011;20951;50.818;4.344;2023-03-23T12:13:02;10.27;;;2.38;;
34725;SDS011;20951;50.818;4.344;2023-03-23T12:18:15;7.22;;;1.92;;
34725;SDS011;20951;50.818;4.344;2023-03-23T12:21:16;8.27;;;2.17;;
34725;SDS011;20951;50.818;4.344;2023-03-23T12:26:31;9.57;;;2.35;;
34725;SDS011;20951;50.818;4.344;2023-03-23T12:29:08;8.60;;;2.10;;
34725;SDS011;20951;50.818;4.344;2023-03-23T12:35:14;8.73;;;2.28;;
34725;SDS011;20951;50.818;4.344;2023-03-23T12:38:09;11.30;;;2.60;;
34725;SDS011;20951;50.818;4.344;2023-03-23T12:49:00;9.25;;;2.25;;
34725;SDS011;20951;50.818;4.344;2023-03-23T12:59:36;9.88;;;2.78;;
34725;SDS011;20951;50.818;4.344;2023-03-23T13:05:03;8.85;;;2.25;;
34725;SDS011;20951;50.818;4.344;2023-03-23T13:07:38;9.25;;;2.17;;
34725;SDS011;20951;50.818;4.344;2023-03-23T13:10:15;10.60;;;2.70;;
34725;SDS011;20951;50.818;4.344;2023-03-23T13:12:51;10.35;;;2.90;;
34725;SDS011;20951;50.818;4.344;2023-03-23T13:17:52;12.93;;;2.40;;
34725;SDS011;20951;50.818;4.344;2023-03-23T13:20:35;12.82;;;3.10;;
34725;SDS011;20951;50.818;4.344;2023-03-23T13:23:42;11.50;;;2.78;;
34725;SDS011;20951;50.818;4.344;2023-03-23T13:26:22;9.73;;;2.33;;
34725;SDS011;20951;50.818;4.344;2023-03-23T13:31:23;13.43;;;2.78;;
34725;SDS011;20951;50.818;4.344;2023-03-23T13:39:31;8.35;;;2.38;;
34725;SDS011;20951;50.818;4.344;2023-03-23T13:44:41;9.27;;;2.30;;
34725;SDS011;20951;50.818;4.344;2023-03-23T13:47:21;10.57;;;2.55;;
34725;SDS011;20951;50.818;4.344;2023-03-23T13:49:59;9.75;;;2.30;;
34725;SDS011;20951;50.818;4.344;2023-03-23T13:57:49;11.07;;;2.78;;
34725;SDS011;20951;50.818;4.344;2023-03-23T14:13:03;13.27;;;3.08;;
34725;SDS011;20951;50.818;4.344;2023-03-23T14:15:41;13.48;;;3.25;;
34725;SDS011;20951;50.818;4.344;2023-03-23T14:18:38;13.38;;;3.45;;
34725;SDS011;20951;50.818;4.344;2023-03-23T14:21:06;13.68;;;3.58;;
34725;SDS011;20951;50.818;4.344;2023-03-23T14:23:40;10.48;;;3.20;;
34725;SDS011;20951;50.818;4.344;2023-03-23T14:26:09;16.50;;;3.53;;
34725;SDS011;20951;50.818;4.344;2023-03-23T14:28:41;11.25;;;2.90;;
34725;SDS011;20951;50.818;4.344;2023-03-23T14:31:27;10.63;;;3.10;;
34725;SDS011;20951;50.818;4.344;2023-03-23T14:33:54;11.93;;;3.25;;
34725;SDS011;20951;50.818;4.344;2023-03-23T14:36:22;11.52;;;3.30;;
34725;SDS011;20951;50.818;4.344;2023-03-23T14:41:53;9.15;;;2.50;;
34725;SDS011;20951;50.818;4.344;2023-03-23T14:46:54;9.68;;;2.35;;
34725;SDS011;20951;50.818;4.344;2023-03-23T14:49:30;8.30;;;2.35;;
34725;SDS011;20951;50.818;4.344;2023-03-23T14:52:09;9.20;;;2.60;;
34725;SDS011;20951;50.818;4.344;2023-03-23T14:54:40;13.18;;;2.55;;
34725;SDS011;20951;50.818;4.344;2023-03-23T14:59:49;10.50;;;2.75;;
34725;SDS011;20951;50.818;4.344;2023-03-23T15:02:21;9.20;;;2.67;;
34725;SDS011;20951;50.818;4.344;2023-03-23T15:04:53;12.25;;;3.58;;
34725;SDS011;20951;50.818;4.344;2023-03-23T15:07:26;10.07;;;3.60;;
34725;SDS011;20951;50.818;4.344;2023-03-23T15:09:56;12.27;;;4.15;;
34725;SDS011;20951;50.818;4.344;2023-03-23T15:12:23;11.85;;;4.22;;
34725;SDS011;20951;50.818;4.344;2023-03-23T15:14:53;15.90;;;5.57;;
34725;SDS011;20951;50.818;4.344;2023-03-23T15:17:29;15.63;;;6.30;;
34725;SDS011;20951;50.818;4.344;2023-03-23T15:20:09;14.90;;;5.20;;
34725;SDS011;20951;50.818;4.344;2023-03-23T15:22:45;10.65;;;4.50;;
34725;SDS011;20951;50.818;4.344;2023-03-23T15:25:19;10.52;;;3.88;;
34725;SDS011;20951;50.818;4.344;2023-03-23T15:27:58;11.30;;;4.18;;
34725;SDS011;20951;50.818;4.344;2023-03-23T15:30:46;10.50;;;3.10;;
34725;SDS011;20951;50.818;4.344;2023-03-23T15:33:18;13.45;;;3.60;;
34725;SDS011;20951;50.818;4.344;2023-03-23T15:35:51;11.23;;;3.50;;
34725;SDS011;20951;50.818;4.344;2023-03-23T15:40:53;9.70;;;3.00;;
34725;SDS011;20951;50.818;4.344;2023-03-23T15:43:54;11.35;;;3.10;;
34725;SDS011;20951;50.818;4.344;2023-03-23T15:46:22;14.95;;;3.58;;
34725;SDS011;20951;50.818;4.344;2023-03-23T15:48:50;12.77;;;3.35;;
34725;SDS011;20951;50.818;4.344;2023-03-23T15:51:31;11.85;;;3.10;;
34725;SDS011;20951;50.818;4.344;2023-03-23T15:53:57;10.43;;;3.22;;
34725;SDS011;20951;50.818;4.344;2023-03-23T15:56:24;11.52;;;3.42;;
34725;SDS011;20951;50.818;4.344;2023-03-23T15:58:50;11.93;;;3.38;;
34725;SDS011;20951;50.818;4.344;2023-03-23T16:01:18;11.82;;;2.80;;
34725;SDS011;20951;50.818;4.344;2023-03-23T16:03:51;12.15;;;2.65;;
34725;SDS011;20951;50.818;4.344;2023-03-23T16:06:26;10.07;;;3.08;;
34725;SDS011;20951;50.818;4.344;2023-03-23T16:08:54;11.45;;;2.47;;
34725;SDS011;20951;50.818;4.344;2023-03-23T16:11:21;12.18;;;2.25;;
34725;SDS011;20951;50.818;4.344;2023-03-23T16:13:48;8.93;;;2.17;;
34725;SDS011;20951;50.818;4.344;2023-03-23T16:16:18;8.18;;;1.90;;
34725;SDS011;20951;50.818;4.344;2023-03-23T16:18:49;11.32;;;2.78;;
34725;SDS011;20951;50.818;4.344;2023-03-23T16:21:15;7.93;;;2.20;;
34725;SDS011;20951;50.818;4.344;2023-03-23T16:23:41;11.88;;;3.08;;
34725;SDS011;20951;50.818;4.344;2023-03-23T16:26:08;14.00;;;3.92;;
34725;SDS011;20951;50.818;4.344;2023-03-23T16:28:35;11.60;;;3.75;;
34725;SDS011;20951;50.818;4.344;2023-03-23T16:31:01;11.77;;;3.70;;
34725;SDS011;20951;50.818;4.344;2023-03-23T16:33:30;13.63;;;3.95;;
34725;SDS011;20951;50.818;4.344;2023-03-23T16:35:59;9.07;;;3.60;;
34725;SDS011;20951;50.818;4.344;2023-03-23T16:38:36;11.57;;;3.85;;
34725;SDS011;20951;50.818;4.344;2023-03-23T16:41:20;12.88;;;3.60;;
34725;SDS011;20951;50.818;4.344;2023-03-23T16:43:50;10.05;;;3.28;;
34725;SDS011;20951;50.818;4.344;2023-03-23T16:46:16;14.13;;;3.50;;
34725;SDS011;20951;50.818;4.344;2023-03-23T16:48:42;14.95;;;3.78;;
34725;SDS011;20951;50.818;4.344;2023-03-23T16:51:08;11.90;;;3.47;;
34725;SDS011;20951;50.818;4.344;2023-03-23T16:53:34;11.73;;;3.17;;
34725;SDS011;20951;50.818;4.344;2023-03-23T16:56:01;11.65;;;3.25;;
34725;SDS011;20951;50.818;4.344;2023-03-23T16:58:30;12.77;;;2.92;;
34725;SDS011;20951;50.818;4.344;2023-03-23T17:00:56;8.73;;;2.80;;
34725;SDS011;20951;50.818;4.344;2023-03-23T17:03:22;10.93;;;3.20;;
34725;SDS011;20951;50.818;4.344;2023-03-23T17:05:49;11.90;;;3.83;;
34725;SDS011;20951;50.818;4.344;2023-03-23T17:08:16;8.45;;;2.83;;
34725;SDS011;20951;50.818;4.344;2023-03-23T17:10:43;11.57;;;3.30;;
34725;SDS011;20951;50.818;4.344;2023-03-23T17:13:09;12.68;;;3.53;;
34725;SDS011;20951;50.818;4.344;2023-03-23T17:15:36;13.38;;;3.35;;
34725;SDS011;20951;50.818;4.344;2023-03-23T17:18:03;13.63;;;3.97;;
34725;SDS011;20951;50.818;4.344;2023-03-23T17:20:30;10.05;;;2.85;;
34725;SDS011;20951;50.818;4.344;2023-03-23T17:23:00;13.63;;;3.40;;
34725;SDS011;20951;50.818;4.344;2023-03-23T17:25:26;13.73;;;3.80;;